Time;durP1;ratioP1;P1;durP2;ratioP2;P2;SDS_P1;SDS_P2;PMS_P1;PMS_P2;Temp;Humidity;BMP_temperature;BMP_pressure;BME280_temperature;BME280_humidity;BME280_pressure;Samples;Min_cycle;Max_cycle;Signal;HPM_P1;HPM_P2
2023/05/21 00:00:50;;;;;;;10.73;6.37;;;13.90;99.90;;;;;;5047396;28;20194;-70
2023/05/21 00:03:16;;;;;;;13.40;7.00;;;13.90;99.90;;;;;;5044965;28;20188;-70
2023/05/21 00:05:43;;;;;;;14.37;7.33;;;13.90;99.90;;;;;;5047345;28;20543;-70
2023/05/21 00:08:09;;;;;;;13.43;6.13;;;13.80;99.90;;;;;;5050535;28;20536;-70
2023/05/21 00:10:35;;;;;;;13.10;6.97;;;13.90;99.90;;;;;;5042668;28;20893;-70
2023/05/21 00:13:01;;;;;;;20.10;7.27;;;13.80;99.90;;;;;;5051677;28;20421;-70
2023/05/21 00:15:26;;;;;;;15.00;5.97;;;13.80;99.90;;;;;;5052109;28;20190;-70
2023/05/21 00:17:52;;;;;;;17.80;7.67;;;13.80;99.90;;;;;;5047999;28;20682;-70
2023/05/21 00:20:18;;;;;;;14.50;7.90;;;13.90;99.90;;;;;;5048154;28;20268;-70
2023/05/21 00:22:43;;;;;;;22.83;8.30;;;13.90;99.90;;;;;;5049010;28;20185;-70
2023/05/21 00:25:10;;;;;;;16.77;8.07;;;14.00;99.90;;;;;;5050871;28;20190;-70
2023/05/21 00:27:36;;;;;;;13.00;7.03;;;14.10;99.90;;;;;;5050885;28;20209;-70
2023/05/21 00:30:02;;;;;;;14.93;6.73;;;14.00;99.90;;;;;;5045125;28;20421;-70
2023/05/21 00:32:28;;;;;;;22.10;8.07;;;14.10;99.90;;;;;;5047399;28;20259;-70
2023/05/21 00:34:54;;;;;;;15.93;8.43;;;14.00;99.90;;;;;;5050383;28;20460;-70
2023/05/21 00:37:20;;;;;;;20.83;8.33;;;14.00;99.90;;;;;;5051352;28;20192;-70
2023/05/21 00:39:46;;;;;;;16.30;6.97;;;13.90;99.90;;;;;;5048206;28;20432;-70
2023/05/21 00:42:16;;;;;;;17.23;8.10;;;14.00;99.90;;;;;;5051136;28;20197;-70
2023/05/21 00:44:44;;;;;;;15.83;8.23;;;14.00;99.90;;;;;;5051645;28;20209;-70
2023/05/21 00:47:11;;;;;;;13.90;6.20;;;14.00;99.90;;;;;;5051282;28;20475;-69
2023/05/21 00:49:36;;;;;;;10.07;6.90;;;14.00;99.90;;;;;;5051428;28;20420;-70
2023/05/21 00:52:02;;;;;;;12.27;7.00;;;14.00;99.90;;;;;;5049544;28;20873;-70
2023/05/21 00:54:29;;;;;;;17.63;7.20;;;13.90;99.90;;;;;;5051621;28;20227;-70
2023/05/21 00:56:55;;;;;;;18.37;8.33;;;13.90;99.90;;;;;;5051555;28;20197;-70
2023/05/21 00:59:20;;;;;;;13.50;7.00;;;13.80;99.90;;;;;;5049604;28;20523;-70
2023/05/21 01:01:52;;;;;;;16.60;7.87;;;13.70;99.90;;;;;;5043153;28;20499;-70
2023/05/21 01:04:19;;;;;;;13.40;7.67;;;13.70;99.90;;;;;;5050143;28;20193;-70
2023/05/21 01:06:45;;;;;;;16.23;7.90;;;13.60;99.90;;;;;;5051247;28;20933;-70
2023/05/21 01:09:11;;;;;;;17.50;9.47;;;13.60;99.90;;;;;;5042551;28;20467;-70
2023/05/21 01:11:43;;;;;;;16.80;9.13;;;13.60;99.90;;;;;;5041106;28;20312;-70
2023/05/21 01:14:11;;;;;;;17.73;8.73;;;13.50;99.90;;;;;;5051406;28;20272;-70
2023/05/21 01:16:39;;;;;;;18.83;9.60;;;13.50;99.90;;;;;;5050417;28;20800;-70
2023/05/21 01:19:08;;;;;;;13.97;8.10;;;13.50;99.90;;;;;;5045510;28;20425;-71
2023/05/21 01:21:36;;;;;;;16.57;7.80;;;13.50;99.90;;;;;;5046310;28;20424;-71
2023/05/21 01:24:04;;;;;;;17.53;9.17;;;13.50;99.90;;;;;;5050744;28;20519;-70
2023/05/21 01:26:32;;;;;;;15.10;7.40;;;13.50;99.90;;;;;;5050903;28;20566;-71
2023/05/21 01:28:58;;;;;;;15.37;8.00;;;13.50;99.90;;;;;;5050614;28;20465;-71
2023/05/21 01:31:33;;;;;;;15.17;8.17;;;13.40;99.90;;;;;;5051345;28;20415;-71
2023/05/21 01:34:02;;;;;;;12.13;7.23;;;13.40;99.90;;;;;;5049509;28;20269;-71
2023/05/21 01:36:33;;;;;;;13.00;8.77;;;13.40;99.90;;;;;;5051282;28;21087;-71
2023/05/21 01:39:25;;;;;;;16.93;8.13;;;13.40;99.90;;;;;;5048167;28;20454;-70
2023/05/21 01:41:52;;;;;;;19.50;8.07;;;13.20;99.90;;;;;;5036857;28;20901;-71
2023/05/21 01:44:18;;;;;;;10.53;6.60;;;13.20;99.90;;;;;;5050808;28;20420;-71
2023/05/21 01:46:44;;;;;;;18.10;8.50;;;13.20;99.90;;;;;;5036022;28;20468;-71
2023/05/21 01:49:10;;;;;;;13.63;7.07;;;13.20;99.90;;;;;;5039098;28;20424;-71
2023/05/21 01:51:36;;;;;;;19.00;8.93;;;13.20;99.90;;;;;;5039938;28;20190;-71
2023/05/21 01:54:02;;;;;;;26.43;10.40;;;13.20;99.90;;;;;;5050837;28;20515;-71
2023/05/21 01:56:28;;;;;;;18.90;10.10;;;13.20;99.90;;;;;;5035658;28;20520;-71
2023/05/21 01:58:58;;;;;;;22.37;9.00;;;13.10;99.90;;;;;;5050913;28;20504;-71
2023/05/21 02:01:25;;;;;;;16.77;8.60;;;13.10;99.90;;;;;;5042990;28;20186;-71
2023/05/21 02:03:50;;;;;;;21.23;9.77;;;13.10;99.90;;;;;;5042394;28;20416;-71
2023/05/21 02:06:16;;;;;;;14.67;7.37;;;13.10;99.90;;;;;;5044220;28;20533;-70
2023/05/21 02:08:41;;;;;;;14.83;8.63;;;13.10;99.90;;;;;;5045996;28;20217;-71
2023/05/21 02:11:07;;;;;;;20.40;8.27;;;13.00;99.90;;;;;;5044545;28;20265;-70
2023/05/21 02:13:33;;;;;;;14.67;9.07;;;13.10;99.90;;;;;;5048801;28;20674;-71
2023/05/21 02:16:00;;;;;;;12.97;7.63;;;13.00;99.90;;;;;;5046443;28;20302;-70
2023/05/21 02:18:28;;;;;;;13.97;8.80;;;13.00;99.90;;;;;;5034206;28;20186;-71
2023/05/21 02:20:53;;;;;;;13.20;7.53;;;13.10;99.90;;;;;;5043011;28;20413;-71
2023/05/21 02:23:19;;;;;;;18.13;9.93;;;13.00;99.90;;;;;;5038869;28;20478;-71
2023/05/21 02:25:45;;;;;;;16.23;9.50;;;13.00;99.90;;;;;;5049623;28;20551;-71
2023/05/21 02:28:11;;;;;;;15.23;8.27;;;13.00;99.90;;;;;;5041006;28;20203;-71
2023/05/21 02:30:37;;;;;;;11.50;8.23;;;12.90;99.90;;;;;;5051727;28;20631;-71
2023/05/21 02:33:02;;;;;;;17.03;8.30;;;12.90;99.90;;;;;;5042816;28;20489;-71
2023/05/21 02:35:28;;;;;;;18.00;9.83;;;12.90;99.90;;;;;;5053032;28;20264;-71
2023/05/21 02:37:57;;;;;;;17.70;9.63;;;12.80;99.90;;;;;;5048624;28;20216;-71
2023/05/21 02:40:24;;;;;;;15.57;8.47;;;12.80;99.90;;;;;;5050784;28;20286;-70
2023/05/21 02:42:49;;;;;;;18.03;8.97;;;12.80;99.90;;;;;;5053117;28;20526;-71
2023/05/21 02:45:15;;;;;;;14.47;7.87;;;12.70;99.90;;;;;;5053164;28;20515;-71
2023/05/21 02:47:40;;;;;;;16.50;7.57;;;12.70;99.90;;;;;;5050285;28;20672;-70
2023/05/21 02:50:07;;;;;;;25.33;9.10;;;12.70;99.90;;;;;;5052835;28;20564;-70
2023/05/21 02:52:33;;;;;;;15.90;8.93;;;12.60;99.90;;;;;;5053055;28;20182;-71
2023/05/21 02:54:58;;;;;;;17.77;8.20;;;12.60;99.90;;;;;;5052638;28;20425;-70
2023/05/21 02:57:24;;;;;;;14.70;8.40;;;12.50;99.90;;;;;;5043412;28;20270;-70
2023/05/21 02:59:50;;;;;;;14.63;8.47;;;12.50;99.90;;;;;;5048624;28;20254;-71
2023/05/21 03:02:15;;;;;;;13.33;8.33;;;12.50;99.90;;;;;;5045240;28;20233;-70
2023/05/21 03:04:45;;;;;;;17.67;9.53;;;12.40;99.90;;;;;;5047252;28;20193;-70
2023/05/21 03:07:13;;;;;;;22.07;8.80;;;12.40;99.90;;;;;;5052832;28;20861;-70
2023/05/21 03:09:40;;;;;;;17.10;8.30;;;12.40;99.90;;;;;;5043382;28;20550;-70
2023/05/21 03:12:06;;;;;;;13.60;7.83;;;12.30;99.90;;;;;;5052259;28;20465;-70
2023/05/21 03:14:32;;;;;;;18.37;8.53;;;12.30;99.90;;;;;;5052572;28;20436;-70
2023/05/21 03:16:58;;;;;;;20.53;9.10;;;12.20;99.90;;;;;;5051911;28;20435;-70
2023/05/21 03:19:24;;;;;;;19.20;9.13;;;12.20;99.90;;;;;;5046516;28;20508;-70
2023/05/21 03:21:49;;;;;;;20.13;9.80;;;12.20;99.90;;;;;;5052254;28;20367;-70
2023/05/21 03:24:15;;;;;;;19.07;9.43;;;12.20;99.90;;;;;;5052403;28;20719;-71
2023/05/21 03:26:40;;;;;;;17.90;9.63;;;12.20;99.90;;;;;;5048274;28;20681;-71
2023/05/21 03:29:06;;;;;;;26.60;8.43;;;12.20;99.90;;;;;;5044518;28;20276;-70
2023/05/21 03:31:32;;;;;;;15.50;8.00;;;12.20;99.90;;;;;;5050934;28;20269;-70
2023/05/21 03:33:57;;;;;;;15.83;7.93;;;12.20;99.90;;;;;;5051274;28;20189;-70
2023/05/21 03:36:23;;;;;;;15.23;8.50;;;12.20;99.90;;;;;;5052569;28;20186;-71
2023/05/21 03:38:48;;;;;;;18.03;8.10;;;12.20;99.90;;;;;;5046577;28;20187;-71
2023/05/21 03:41:14;;;;;;;18.07;9.67;;;12.10;99.90;;;;;;5050678;28;20263;-71
2023/05/21 03:43:40;;;;;;;16.53;9.33;;;12.10;99.90;;;;;;5045126;28;20181;-70
2023/05/21 03:46:05;;;;;;;31.57;8.43;;;12.10;99.90;;;;;;5052119;28;20197;-70
2023/05/21 03:48:31;;;;;;;16.83;8.30;;;12.00;99.90;;;;;;5047216;28;20263;-70
2023/05/21 03:50:56;;;;;;;22.30;9.30;;;12.10;99.90;;;;;;5051643;28;20513;-70
2023/05/21 03:53:23;;;;;;;20.80;9.43;;;12.00;99.90;;;;;;5041387;28;20190;-70
2023/05/21 03:55:53;;;;;;;17.23;8.90;;;12.00;99.90;;;;;;5025841;28;20247;-70
2023/05/21 03:58:21;;;;;;;17.53;7.70;;;12.00;99.90;;;;;;5051851;28;20428;-70
2023/05/21 04:00:47;;;;;;;25.70;9.37;;;12.00;99.90;;;;;;5052045;28;20455;-70
2023/05/21 04:03:13;;;;;;;23.53;11.90;;;12.00;99.90;;;;;;5043529;28;20815;-70
2023/05/21 04:05:40;;;;;;;16.70;10.60;;;12.00;99.90;;;;;;5051024;28;20487;-71
2023/05/21 04:08:06;;;;;;;24.50;11.83;;;12.10;99.90;;;;;;5049391;28;20444;-70
2023/05/21 04:10:31;;;;;;;19.47;9.80;;;12.00;99.90;;;;;;5027139;28;20416;-70
2023/05/21 04:12:57;;;;;;;23.03;9.90;;;12.00;99.90;;;;;;5037374;28;20682;-70
2023/05/21 04:15:24;;;;;;;17.67;9.53;;;12.10;99.90;;;;;;5051747;28;20182;-70
2023/05/21 04:17:51;;;;;;;20.77;10.50;;;12.10;99.90;;;;;;5041606;28;20174;-70
2023/05/21 04:20:17;;;;;;;18.40;9.43;;;12.10;99.90;;;;;;5047476;28;20420;-70
2023/05/21 04:22:42;;;;;;;19.17;9.13;;;12.10;99.90;;;;;;5045299;28;20511;-70
2023/05/21 04:25:08;;;;;;;23.47;11.10;;;12.10;99.90;;;;;;5051703;28;20499;-70
2023/05/21 04:27:35;;;;;;;20.70;10.23;;;12.20;99.90;;;;;;5046256;28;20237;-71
2023/05/21 04:30:03;;;;;;;23.67;11.70;;;12.20;99.90;;;;;;5043211;28;20194;-71
2023/05/21 04:32:29;;;;;;;23.13;10.43;;;12.20;99.90;;;;;;5041923;28;20504;-70
2023/05/21 04:34:55;;;;;;;16.20;9.57;;;12.30;99.90;;;;;;5050982;28;20420;-70
2023/05/21 04:37:23;;;;;;;19.70;10.00;;;12.30;99.90;;;;;;5051408;28;20770;-70
2023/05/21 04:39:49;;;;;;;19.97;8.73;;;12.30;99.90;;;;;;5045855;28;20609;-70
2023/05/21 04:42:15;;;;;;;19.13;10.23;;;12.30;99.90;;;;;;5048114;28;20527;-71
2023/05/21 04:44:43;;;;;;;20.77;9.17;;;12.40;99.90;;;;;;5039508;28;20634;-70
2023/05/21 04:47:09;;;;;;;21.10;10.00;;;12.40;99.90;;;;;;5050930;28;20240;-71
2023/05/21 04:49:34;;;;;;;22.23;10.47;;;12.50;99.90;;;;;;5050729;28;20448;-70
2023/05/21 04:52:01;;;;;;;21.50;10.83;;;12.50;99.90;;;;;;5050553;28;20416;-70
2023/05/21 04:54:27;;;;;;;20.77;10.10;;;12.60;99.90;;;;;;5051056;28;20181;-70
2023/05/21 04:56:53;;;;;;;18.57;9.97;;;12.60;99.90;;;;;;5051152;28;20412;-70
2023/05/21 04:59:19;;;;;;;17.67;9.80;;;12.70;99.90;;;;;;5050561;28;20439;-70
2023/05/21 05:01:44;;;;;;;20.93;9.90;;;12.70;99.90;;;;;;5046033;28;20178;-70
2023/05/21 05:04:10;;;;;;;19.70;10.30;;;12.70;99.90;;;;;;5047616;28;20213;-70
2023/05/21 05:06:36;;;;;;;18.20;10.50;;;12.80;99.90;;;;;;5050903;28;20662;-71
2023/05/21 05:09:02;;;;;;;26.73;10.43;;;12.90;99.90;;;;;;5042213;28;20669;-70
2023/05/21 05:11:29;;;;;;;15.47;9.77;;;12.90;99.90;;;;;;5046706;28;20173;-71
2023/05/21 05:13:54;;;;;;;17.80;9.70;;;13.00;99.90;;;;;;5044278;28;20458;-71
2023/05/21 05:16:24;;;;;;;23.63;10.20;;;13.00;99.90;;;;;;5050444;28;20186;-70
2023/05/21 05:18:51;;;;;;;21.00;10.27;;;13.10;99.90;;;;;;5041177;28;20670;-71
2023/05/21 05:21:17;;;;;;;19.27;9.50;;;13.10;99.90;;;;;;5044941;28;20450;-71
2023/05/21 05:23:42;;;;;;;19.43;10.73;;;13.20;99.90;;;;;;5050344;28;20923;-71
2023/05/21 05:26:09;;;;;;;19.17;9.60;;;13.20;99.90;;;;;;5050173;28;20217;-71
2023/05/21 05:28:35;;;;;;;20.80;9.47;;;13.30;99.90;;;;;;5050286;28;20182;-71
2023/05/21 05:31:00;;;;;;;17.80;10.23;;;13.30;99.90;;;;;;5050255;28;20654;-71
2023/05/21 05:33:26;;;;;;;24.27;11.13;;;13.30;99.90;;;;;;5049508;28;20189;-71
2023/05/21 05:35:51;;;;;;;17.03;8.80;;;13.40;99.90;;;;;;5049907;28;20226;-71
2023/05/21 05:38:17;;;;;;;19.10;9.10;;;13.40;99.90;;;;;;5049252;28;20204;-71
2023/05/21 05:40:43;;;;;;;14.43;8.40;;;13.50;99.90;;;;;;5045699;28;20186;-70
2023/05/21 05:43:08;;;;;;;20.57;10.67;;;13.50;99.90;;;;;;5040144;28;20200;-71
2023/05/21 05:45:34;;;;;;;20.30;8.80;;;13.60;99.90;;;;;;5045834;28;20303;-71
2023/05/21 05:48:00;;;;;;;15.80;8.73;;;13.60;99.90;;;;;;5050480;28;20243;-71
2023/05/21 05:50:26;;;;;;;16.33;7.57;;;13.70;99.90;;;;;;5050186;28;20185;-71
2023/05/21 05:52:51;;;;;;;22.10;9.20;;;13.70;99.90;;;;;;5050597;28;20189;-71
2023/05/21 05:55:17;;;;;;;15.77;9.13;;;13.80;99.90;;;;;;5050099;28;20420;-71
2023/05/21 05:57:42;;;;;;;17.93;9.83;;;13.90;99.90;;;;;;5050547;28;20192;-71
2023/05/21 06:00:09;;;;;;;16.70;9.07;;;13.90;99.90;;;;;;5050065;28;20273;-71
2023/05/21 06:02:35;;;;;;;17.77;9.00;;;14.00;99.90;;;;;;5044053;28;20178;-71
2023/05/21 06:05:02;;;;;;;23.10;9.13;;;14.00;99.90;;;;;;5052457;28;20967;-71
2023/05/21 06:07:27;;;;;;;21.57;9.53;;;14.10;99.90;;;;;;5053949;28;20467;-71
2023/05/21 06:09:53;;;;;;;19.27;10.50;;;14.10;99.90;;;;;;5040978;28;20471;-71
2023/05/21 06:12:18;;;;;;;16.17;9.07;;;14.10;99.90;;;;;;5051871;28;20186;-71
2023/05/21 06:14:46;;;;;;;17.50;9.43;;;14.10;99.90;;;;;;5049225;28;20231;-71
2023/05/21 06:17:11;;;;;;;17.13;8.93;;;14.20;99.90;;;;;;5053772;28;20524;-71
2023/05/21 06:19:38;;;;;;;15.37;9.03;;;14.20;99.90;;;;;;5048193;28;20440;-71
2023/05/21 06:22:04;;;;;;;16.90;8.60;;;14.30;99.90;;;;;;5053187;28;20204;-71
2023/05/21 06:24:30;;;;;;;16.50;9.40;;;14.30;99.90;;;;;;5053623;28;20433;-71
2023/05/21 06:26:55;;;;;;;19.67;11.17;;;14.40;99.90;;;;;;5053651;28;20240;-71
2023/05/21 06:29:21;;;;;;;15.80;9.20;;;14.40;99.90;;;;;;5053600;28;20204;-71
2023/05/21 06:31:47;;;;;;;20.30;8.97;;;14.50;99.90;;;;;;5053148;28;20775;-71
2023/05/21 06:34:13;;;;;;;23.77;9.30;;;14.60;99.90;;;;;;5052494;28;20755;-71
2023/05/21 06:36:38;;;;;;;17.50;9.03;;;14.60;99.90;;;;;;5053409;28;20182;-72
2023/05/21 06:39:04;;;;;;;21.93;8.60;;;14.70;99.90;;;;;;5047223;28;20187;-71
2023/05/21 06:41:30;;;;;;;14.63;9.43;;;14.70;99.90;;;;;;5053576;28;20209;-71
2023/05/21 06:43:55;;;;;;;19.10;9.27;;;14.80;99.90;;;;;;5048797;28;20284;-71
2023/05/21 06:46:21;;;;;;;19.63;9.10;;;14.90;99.90;;;;;;5053749;28;20288;-71
2023/05/21 06:48:47;;;;;;;22.67;9.77;;;15.10;99.90;;;;;;5052991;28;20208;-72
2023/05/21 06:51:12;;;;;;;15.77;7.87;;;15.10;99.90;;;;;;5052667;28;20194;-72
2023/05/21 06:53:38;;;;;;;15.17;7.83;;;15.20;99.90;;;;;;5052689;28;20688;-72
2023/05/21 06:56:04;;;;;;;18.63;8.27;;;15.30;99.90;;;;;;5053268;28;20190;-72
2023/05/21 06:58:30;;;;;;;12.87;7.37;;;15.50;99.90;;;;;;5052557;28;20191;-72
2023/05/21 07:01:00;;;;;;;15.93;7.57;;;15.70;99.90;;;;;;5053194;28;20281;-70
2023/05/21 07:03:26;;;;;;;17.13;8.00;;;15.90;99.90;;;;;;5044309;28;20423;-70
2023/05/21 07:05:54;;;;;;;13.00;8.57;;;15.90;99.90;;;;;;5052174;28;20559;-70
2023/05/21 07:08:20;;;;;;;15.23;7.57;;;16.20;99.90;;;;;;5050804;28;20424;-70
2023/05/21 07:10:45;;;;;;;13.20;8.90;;;16.30;99.90;;;;;;5042504;28;20919;-70
2023/05/21 07:13:11;;;;;;;14.73;8.33;;;16.30;99.90;;;;;;5041041;28;20235;-70
2023/05/21 07:15:37;;;;;;;12.93;7.10;;;16.40;99.90;;;;;;5051779;28;20188;-70
2023/05/21 07:18:03;;;;;;;12.63;6.60;;;16.60;99.90;;;;;;5049560;28;20425;-70
2023/05/21 07:20:28;;;;;;;16.53;7.60;;;17.10;99.90;;;;;;5050188;28;20182;-70
2023/05/21 07:22:54;;;;;;;12.77;6.80;;;17.60;99.90;;;;;;5052120;28;20182;-70
2023/05/21 07:25:20;;;;;;;14.60;6.40;;;17.80;99.90;;;;;;5052804;28;20194;-70
2023/05/21 07:27:45;;;;;;;12.10;6.53;;;18.00;99.90;;;;;;5052763;28;20700;-70
2023/05/21 07:30:13;;;;;;;11.77;6.20;;;18.10;99.90;;;;;;5052892;28;20194;-71
2023/05/21 07:32:39;;;;;;;13.10;6.90;;;18.20;99.90;;;;;;5051130;28;20201;-71
2023/05/21 07:35:05;;;;;;;16.50;6.63;;;18.50;99.90;;;;;;5042153;28;20413;-71
2023/05/21 07:37:31;;;;;;;7.73;5.73;;;18.80;99.90;;;;;;5048811;28;20182;-71
2023/05/21 07:40:00;;;;;;;9.27;5.63;;;19.90;99.90;;;;;;5047122;28;20545;-71
2023/05/21 07:42:26;;;;;;;12.03;6.53;;;21.00;99.90;;;;;;5048881;28;20181;-71
2023/05/21 07:44:51;;;;;;;13.80;5.07;;;21.90;99.60;;;;;;5051790;28;20423;-71
2023/05/21 07:47:17;;;;;;;10.80;6.57;;;21.90;99.10;;;;;;5052029;28;20201;-71
2023/05/21 07:49:43;;;;;;;11.10;4.90;;;21.50;99.70;;;;;;5051749;28;20177;-71
2023/05/21 07:52:08;;;;;;;9.30;5.40;;;22.10;98.60;;;;;;5051551;28;20654;-71
2023/05/21 07:54:34;;;;;;;13.13;4.77;;;22.10;98.20;;;;;;5052032;28;20176;-71
2023/05/21 07:57:01;;;;;;;7.67;5.20;;;21.90;98.00;;;;;;5052055;28;20181;-71
2023/05/21 07:59:27;;;;;;;7.57;4.50;;;22.70;97.60;;;;;;5051556;28;20176;-71
2023/05/21 08:01:53;;;;;;;13.23;6.13;;;23.40;95.90;;;;;;5034584;28;20897;-71
2023/05/21 08:04:19;;;;;;;13.50;6.05;;;24.10;93.90;;;;;;5049913;28;20196;-72
2023/05/21 08:06:45;;;;;;;8.55;4.68;;;24.30;93.80;;;;;;5051660;28;20201;-71
2023/05/21 08:09:11;;;;;;;9.53;5.30;;;24.10;93.40;;;;;;5043210;28;20178;-71
2023/05/21 08:11:36;;;;;;;12.27;5.50;;;23.50;94.90;;;;;;5048727;28;20664;-71
2023/05/21 08:14:02;;;;;;;11.20;5.40;;;22.70;95.90;;;;;;5031628;28;20178;-71
2023/05/21 08:16:28;;;;;;;9.10;4.60;;;22.20;97.00;;;;;;5048824;28;20566;-71
2023/05/21 08:18:53;;;;;;;13.27;5.80;;;22.30;95.90;;;;;;5048637;28;20177;-71
2023/05/21 08:21:19;;;;;;;14.83;7.00;;;22.20;96.50;;;;;;5048473;28;20215;-71
2023/05/21 08:23:45;;;;;;;10.70;5.87;;;22.40;96.40;;;;;;5051195;28;20188;-71
2023/05/21 08:26:10;;;;;;;11.83;6.00;;;22.50;95.90;;;;;;5050658;28;20193;-71
2023/05/21 08:28:39;;;;;;;7.33;5.00;;;22.10;96.20;;;;;;5050987;28;20211;-71
2023/05/21 08:31:05;;;;;;;9.80;4.90;;;22.40;95.70;;;;;;5051227;28;20185;-71
2023/05/21 08:33:31;;;;;;;6.80;4.30;;;22.70;95.10;;;;;;5050482;28;20665;-71
2023/05/21 08:35:56;;;;;;;13.07;6.57;;;23.00;95.20;;;;;;5050778;28;20320;-71
2023/05/21 08:38:22;;;;;;;11.40;5.60;;;22.70;95.00;;;;;;5049040;28;20185;-71
2023/05/21 08:40:51;;;;;;;7.95;4.10;;;22.90;94.10;;;;;;5047064;28;20260;-71
2023/05/21 08:43:16;;;;;;;10.90;5.53;;;23.20;94.10;;;;;;5046929;28;20184;-72
2023/05/21 08:45:46;;;;;;;9.40;5.43;;;24.10;94.90;;;;;;5051018;28;20208;-72
2023/05/21 08:48:15;;;;;;;13.23;5.35;;;24.30;94.00;;;;;;5051113;28;20312;-71
2023/05/21 08:50:41;;;;;;;12.23;6.07;;;24.50;94.10;;;;;;5050619;28;20184;-71
2023/05/21 08:53:07;;;;;;;9.70;5.68;;;25.70;91.10;;;;;;5050455;28;20674;-71
2023/05/21 08:55:34;;;;;;;7.75;5.43;;;25.90;90.80;;;;;;5050893;28;20311;-71
2023/05/21 08:58:00;;;;;;;9.98;5.47;;;25.30;91.50;;;;;;5051484;28;20834;-71
2023/05/21 09:00:25;;;;;;;9.15;5.28;;;25.20;91.00;;;;;;5050881;28;20185;-71
2023/05/21 09:02:53;;;;;;;12.57;5.72;;;25.10;90.70;;;;;;5043674;28;20181;-72
2023/05/21 09:05:19;;;;;;;7.75;4.82;;;24.80;91.70;;;;;;5048896;28;20200;-71
2023/05/21 09:08:04;;;;;;;7.20;4.68;;;24.40;92.40;;;;;;5050751;28;20636;-71
2023/05/21 09:10:45;;;;;;;11.10;5.63;;;24.40;92.90;;;;;;5037487;28;20177;-72
2023/05/21 09:13:11;;;;;;;10.05;5.25;;;24.70;92.10;;;;;;5037289;28;20212;-71
2023/05/21 09:15:37;;;;;;;13.82;6.43;;;24.40;92.60;;;;;;5038971;28;20231;-72
2023/05/21 09:18:03;;;;;;;8.90;5.25;;;24.30;93.80;;;;;;5047439;28;20202;-72
2023/05/21 09:20:28;;;;;;;16.52;5.22;;;24.50;92.90;;;;;;5048087;28;20184;-72
2023/05/21 09:22:54;;;;;;;10.40;5.60;;;23.80;93.70;;;;;;5050064;28;20173;-71
2023/05/21 09:25:28;;;;;;;11.50;5.70;;;23.30;94.40;;;;;;5050312;28;20177;-72
2023/05/21 09:28:00;;;;;;;11.27;5.80;;;23.70;93.80;;;;;;5050306;28;20224;-72
2023/05/21 09:30:26;;;;;;;17.35;6.18;;;24.00;94.40;;;;;;5050415;28;20173;-72
2023/05/21 09:32:56;;;;;;;12.85;5.20;;;24.80;93.10;;;;;;5031062;28;20681;-72
2023/05/21 09:35:21;;;;;;;8.07;5.45;;;24.40;93.40;;;;;;5042314;28;20196;-72
2023/05/21 09:37:49;;;;;;;13.40;6.97;;;25.10;92.00;;;;;;5052073;28;20204;-72
2023/05/21 09:40:16;;;;;;;14.23;5.32;;;25.10;92.10;;;;;;5047512;28;20177;-72
2023/05/21 09:42:45;;;;;;;11.40;6.07;;;25.20;91.30;;;;;;5053221;28;20712;-72
2023/05/21 09:45:11;;;;;;;11.57;5.35;;;24.40;93.30;;;;;;5054821;28;20640;-71
2023/05/21 09:47:44;;;;;;;9.55;4.93;;;24.90;92.30;;;;;;5054350;28;20196;-72
2023/05/21 09:50:31;;;;;;;12.13;5.55;;;24.40;92.50;;;;;;5054241;28;20252;-72
2023/05/21 09:52:57;;;;;;;7.85;5.53;;;24.70;92.20;;;;;;5053437;28;20680;-72
2023/05/21 09:55:25;;;;;;;7.95;5.45;;;24.20;93.10;;;;;;5053905;28;20216;-72
2023/05/21 09:57:51;;;;;;;8.45;5.72;;;24.60;93.20;;;;;;5054593;28;20590;-71
2023/05/21 10:00:23;;;;;;;9.20;5.50;;;25.50;91.50;;;;;;5054003;28;20566;-72
2023/05/21 10:02:53;;;;;;;7.97;5.05;;;25.80;90.60;;;;;;5046938;28;20530;-72
2023/05/21 10:05:19;;;;;;;13.07;5.55;;;25.90;90.20;;;;;;5052769;28;20185;-72
2023/05/21 10:07:53;;;;;;;10.20;6.22;;;25.70;90.90;;;;;;5054073;28;20571;-72
2023/05/21 10:10:20;;;;;;;10.55;6.70;;;25.80;91.10;;;;;;5040132;28;20568;-72
2023/05/21 10:13:07;;;;;;;13.57;5.57;;;25.50;91.10;;;;;;5046775;28;20294;-72
2023/05/21 10:15:39;;;;;;;15.60;5.95;;;25.00;92.50;;;;;;5053402;28;20672;-72
2023/05/21 10:18:06;;;;;;;12.32;5.22;;;25.40;90.60;;;;;;5050678;28;20561;-72
2023/05/21 10:20:33;;;;;;;6.90;4.97;;;25.10;90.90;;;;;;5049883;28;20186;-72
2023/05/21 10:22:59;;;;;;;8.17;5.00;;;24.90;91.90;;;;;;5053312;28;20181;-72
2023/05/21 10:25:27;;;;;;;11.13;5.30;;;24.60;93.20;;;;;;5053491;28;20173;-72
2023/05/21 10:27:54;;;;;;;10.07;5.73;;;24.60;91.60;;;;;;5053744;28;20582;-72
2023/05/21 10:30:22;;;;;;;12.27;5.40;;;24.70;91.40;;;;;;5053523;28;20208;-72
2023/05/21 10:32:48;;;;;;;9.37;5.80;;;24.50;93.30;;;;;;5052591;28;20181;-72
2023/05/21 10:35:17;;;;;;;10.47;4.60;;;24.80;91.10;;;;;;5053371;28;20746;-72
2023/05/21 10:37:44;;;;;;;9.20;4.50;;;24.90;90.80;;;;;;5053830;28;20863;-72
2023/05/21 10:40:11;;;;;;;8.20;4.27;;;24.70;91.20;;;;;;5048691;28;20463;-72
2023/05/21 10:42:55;;;;;;;10.40;5.80;;;24.40;91.90;;;;;;5052028;28;20428;-72
2023/05/21 10:45:24;;;;;;;11.83;5.83;;;24.40;91.70;;;;;;5052850;28;20415;-72
2023/05/21 10:48:17;;;;;;;11.27;4.60;;;24.20;92.50;;;;;;5053257;28;20419;-72
2023/05/21 10:50:48;;;;;;;8.50;4.60;;;24.10;93.30;;;;;;5052837;28;20426;-72
2023/05/21 10:53:36;;;;;;;11.20;5.27;;;24.30;92.70;;;;;;5052801;28;20423;-72
2023/05/21 10:56:05;;;;;;;12.17;4.93;;;24.40;91.60;;;;;;5052872;28;20459;-72
2023/05/21 10:58:55;;;;;;;8.13;4.63;;;24.20;92.20;;;;;;5053321;28;20514;-72
2023/05/21 11:01:21;;;;;;;9.97;5.30;;;24.00;93.70;;;;;;5051672;28;20431;-72
2023/05/21 11:03:50;;;;;;;7.03;4.40;;;24.20;92.20;;;;;;5047302;28;20419;-72
2023/05/21 11:06:24;;;;;;;11.53;4.63;;;24.20;92.10;;;;;;5047456;28;20528;-72
2023/05/21 11:08:52;;;;;;;13.20;5.77;;;23.80;93.30;;;;;;5035233;28;20451;-72
2023/05/21 11:11:41;;;;;;;7.03;4.60;;;23.60;93.50;;;;;;5039433;28;20507;-72
2023/05/21 11:14:33;;;;;;;7.37;4.60;;;23.20;93.50;;;;;;5052289;28;20988;-72
2023/05/21 11:17:01;;;;;;;14.70;5.63;;;23.00;93.10;;;;;;5029770;28;20502;-72
2023/05/21 11:19:39;;;;;;;11.70;5.10;;;22.90;94.10;;;;;;5047181;28;20456;-72
2023/05/21 11:22:21;;;;;;;8.93;4.67;;;23.00;94.80;;;;;;5052465;28;20420;-72
2023/05/21 11:24:48;;;;;;;9.77;4.00;;;23.20;93.60;;;;;;5052722;28;20424;-72
2023/05/21 11:27:35;;;;;;;4.97;3.60;;;23.50;92.80;;;;;;5052674;28;20849;-72
2023/05/21 11:30:08;;;;;;;5.70;3.97;;;23.70;92.10;;;;;;5028180;28;20415;-72
2023/05/21 11:32:38;;;;;;;8.03;3.70;;;23.80;91.40;;;;;;5051099;28;20419;-72
2023/05/21 11:35:04;;;;;;;6.93;4.07;;;23.70;92.60;;;;;;5052271;28;20420;-72
2023/05/21 11:37:33;;;;;;;7.03;3.77;;;23.80;91.20;;;;;;5052244;28;20474;-72
2023/05/21 11:40:19;;;;;;;5.37;3.20;;;23.70;91.10;;;;;;5046636;28;20474;-72
2023/05/21 11:42:50;;;;;;;7.33;4.60;;;24.00;91.20;;;;;;5049126;28;20415;-72
2023/05/21 11:45:23;;;;;;;6.40;4.03;;;23.90;92.70;;;;;;5052238;28;20424;-72
2023/05/21 11:47:50;;;;;;;6.37;3.90;;;24.00;91.50;;;;;;5052139;28;20461;-72
2023/05/21 11:50:16;;;;;;;8.53;4.23;;;23.90;92.50;;;;;;5051848;28;20447;-72
2023/05/21 11:52:43;;;;;;;8.13;4.13;;;24.00;92.80;;;;;;5051897;28;20408;-72
2023/05/21 11:55:10;;;;;;;10.67;4.70;;;24.20;91.70;;;;;;5052231;28;20973;-72
2023/05/21 11:57:36;;;;;;;6.17;4.00;;;24.30;91.40;;;;;;5051783;28;20475;-72
2023/05/21 12:00:11;;;;;;;6.30;3.90;;;24.20;92.90;;;;;;5050226;28;20956;-72
2023/05/21 12:02:37;;;;;;;8.97;4.47;;;24.30;92.60;;;;;;5035964;28;20442;-72
2023/05/21 12:05:02;;;;;;;7.37;4.00;;;24.20;92.80;;;;;;5049007;28;20420;-72
2023/05/21 12:07:28;;;;;;;5.47;3.70;;;24.20;92.20;;;;;;5052231;28;20223;-72
2023/05/21 12:09:54;;;;;;;8.27;4.37;;;24.30;91.90;;;;;;5039109;28;20631;-72
2023/05/21 12:12:21;;;;;;;5.93;3.97;;;24.20;91.40;;;;;;5051296;28;20339;-72
2023/05/21 12:14:53;;;;;;;7.27;3.70;;;24.00;91.70;;;;;;5048955;28;20507;-72
2023/05/21 12:17:20;;;;;;;5.33;3.50;;;24.10;91.30;;;;;;5041848;28;20510;-72
2023/05/21 12:19:46;;;;;;;7.10;3.87;;;24.40;90.00;;;;;;5046168;28;20451;-72
2023/05/21 12:22:14;;;;;;;9.03;3.90;;;24.60;89.50;;;;;;5051187;28;20901;-72
2023/05/21 12:24:39;;;;;;;6.13;2.73;;;24.00;90.70;;;;;;5051316;28;20511;-72
2023/05/21 12:27:12;;;;;;;7.20;3.27;;;23.90;91.40;;;;;;5051539;28;20522;-72
2023/05/21 12:29:38;;;;;;;7.30;3.40;;;23.80;90.80;;;;;;5050873;28;20223;-72
2023/05/21 12:32:07;;;;;;;10.10;4.27;;;23.70;91.00;;;;;;5048096;28;20901;-72
2023/05/21 12:34:46;;;;;;;12.97;4.43;;;23.90;91.70;;;;;;5048233;28;20431;-72
2023/05/21 12:37:19;;;;;;;7.73;4.23;;;24.10;90.70;;;;;;5051258;28;20947;-72
2023/05/21 12:39:47;;;;;;;5.97;3.60;;;24.20;90.00;;;;;;5045690;28;20427;-72